Forside
METAR-TAF:

METAR-TAF

Lufthavne :

Holland, Michigan, USA

Breddekreds: 42-44-46N, længdekreds: 086-05-48W, højde: 209 m

Aktuelle vejr

Denne rapport blev lavet for 26 minutter siden, kl. 19:53 UTC
Vind 14 kt fra sydvest med vindstød på up til 21 kt
Temperatur 4°C
Fugtighed 56%
Tryk 1021 hPa
Sigt: 16.1 km
skyfri

METAR: KBIV 221953Z AUTO 23014G21KT 10SM CLR 04/M04 A3015 RMK AO2 SLP218 T00441039

Tid: 15:19 (20:19 UTC)


TAF: fraværende

Vejrobservationer og prognoser fra mere end 4000 lufthavne (METAR og TAF).

De gule og røde prikker repræsenterer de meteorologiske stationer.

Flyt musen over at se navnet på stationen.

Så klik over at se vejr observationer og prognoser.

At skifte det kort: Klik på de grønne knapper med et sort kors for at zoome ind; på den grønne knap med en bindestreg for at zoome ud; eller på de grønne pile for tilstødende kort.


METAR-TAF: